createdAt,value
2019-02-26T00:16:42.405Z,25.03
2019-02-26T00:23:01.600Z,23.67
2019-02-26T00:54:24.495Z,29.23
2019-02-26T00:59:51.688Z,30.50
2019-02-26T01:05:26.524Z,24.33
2019-02-26T01:08:19.802Z,27.53
2019-02-26T01:14:00.288Z,23.13
2019-02-26T01:16:34.207Z,28.00
2019-02-26T03:16:34.063Z,37.33
2019-02-26T03:19:12.042Z,35.30
2019-02-26T03:22:48.911Z,30.77
2019-02-26T03:25:09.024Z,31.43
2019-02-26T03:28:53.216Z,29.10
2019-02-26T03:32:30.638Z,29.13
2019-02-26T03:34:08.244Z,35.40
2019-02-26T03:36:35.050Z,30.63
2019-02-26T03:39:40.657Z,33.40
2019-02-26T04:19:54.953Z,32.60
2019-02-26T04:22:29.617Z,35.63
2019-02-26T04:25:04.792Z,39.40
2019-02-26T04:27:59.021Z,33.97
2019-02-26T04:30:47.195Z,29.27
2019-02-26T04:33:38.131Z,33.33
2019-02-26T04:36:20.333Z,36.43
2019-02-26T04:39:10.586Z,31.60
2019-02-26T04:42:03.618Z,30.70
2019-02-26T04:44:50.047Z,33.50
2019-02-26T04:47:19.005Z,33.67
2019-02-26T04:49:48.500Z,29.47
2019-02-26T04:52:17.532Z,33.43
2019-02-26T04:54:46.410Z,36.47
2019-02-26T04:57:15.241Z,33.67
2019-02-26T04:59:44.139Z,35.57
2019-02-26T05:02:13.099Z,38.47
2019-02-26T05:04:42.108Z,36.83
2019-02-26T05:07:13.378Z,31.77
2019-02-26T05:09:41.653Z,30.90
2019-02-26T05:12:10.413Z,36.73
2019-02-26T05:14:39.047Z,43.20
2019-02-26T05:17:07.891Z,41.40
2019-02-26T05:19:39.255Z,33.77
2019-02-26T05:22:07.098Z,32.83
2019-02-26T05:24:37.950Z,36.20
2019-02-26T05:27:15.334Z,32.47
2019-02-26T05:29:45.738Z,36.20
2019-02-26T05:32:13.349Z,34.93
2019-02-26T05:34:43.439Z,35.37
2019-02-26T05:37:13.953Z,31.17
2019-02-26T05:39:43.975Z,36.07
2019-02-26T05:42:13.073Z,47.97
2019-02-26T05:44:41.759Z,31.93
2019-02-26T05:47:10.551Z,35.00
2019-02-26T05:49:41.435Z,43.00
2019-02-26T05:52:09.702Z,34.47
2019-02-26T05:54:38.285Z,33.33
2019-02-26T05:57:10.861Z,37.70
2019-02-26T05:59:37.557Z,37.60
2019-02-26T06:02:06.140Z,41.43
2019-02-26T06:04:35.693Z,36.60
2019-02-26T06:07:05.158Z,33.67
2019-02-26T06:10:04.443Z,37.17
2019-02-26T06:18:34.358Z,40.90
2019-02-26T06:24:40.308Z,40.97
2019-02-26T06:27:00.254Z,39.70
2019-02-26T06:29:29.913Z,34.13
2019-02-26T06:32:32.234Z,36.30
2019-02-26T06:34:59.037Z,42.80
2019-02-26T06:37:29.059Z,47.73
2019-02-26T06:39:59.884Z,34.73
2019-02-26T06:42:30.644Z,42.03
2019-02-26T06:44:58.613Z,37.83
2019-02-26T06:47:29.298Z,37.87
2019-02-26T06:49:57.622Z,36.50
2019-02-26T06:52:26.260Z,37.07
2019-02-26T06:54:57.672Z,45.53
2019-02-26T06:57:25.197Z,46.40
2019-02-26T06:59:56.357Z,35.30
2019-02-26T07:02:29.020Z,38.73
2019-02-26T07:04:57.339Z,39.13
2019-02-26T07:07:26.093Z,36.43
2019-02-26T07:09:57.426Z,32.70
2019-02-26T07:12:26.555Z,47.67
2019-02-26T07:14:56.271Z,43.43
2019-02-26T07:17:26.940Z,44.17
2019-02-26T07:19:57.794Z,42.03
2019-02-26T07:22:26.489Z,40.37
2019-02-26T07:24:55.263Z,42.57
2019-02-26T07:27:23.900Z,40.43
2019-02-26T07:29:52.507Z,41.77
2019-02-26T07:32:22.225Z,43.10
2019-02-26T07:34:52.131Z,48.60
2019-02-26T07:37:20.981Z,45.50
2019-02-26T07:39:51.434Z,45.90
2019-02-26T07:42:19.943Z,44.27
2019-02-26T07:44:48.646Z,44.93
2019-02-26T07:47:17.389Z,46.60
2019-02-26T07:49:46.209Z,36.20
2019-02-26T07:52:14.929Z,42.70
2019-02-26T07:54:44.805Z,36.00
2019-02-26T07:57:15.650Z,33.97
2019-02-26T07:59:45.103Z,33.63
2019-02-26T08:02:14.864Z,36.97
2019-02-26T08:04:43.666Z,34.47
2019-02-26T08:07:12.216Z,32.73
2019-02-26T08:09:40.886Z,39.03
2019-02-26T08:12:11.259Z,33.03
2019-02-26T08:14:41.053Z,30.43
2019-02-26T08:17:10.309Z,37.57
2019-02-26T08:19:39.832Z,32.40
2019-02-26T08:22:09.487Z,37.53
2019-02-26T08:24:39.710Z,40.23
2019-02-26T08:27:09.377Z,38.37
2019-02-26T08:29:38.561Z,29.90
2019-02-26T08:43:25.839Z,39.17
2019-02-26T08:45:54.616Z,32.40
2019-02-26T08:48:24.601Z,45.37
2019-02-26T08:50:55.674Z,34.83
2019-02-26T08:53:24.850Z,33.10
2019-02-26T08:55:56.352Z,33.63
2019-02-26T08:58:25.740Z,31.27
2019-02-26T09:00:55.005Z,34.87
2019-02-26T09:03:23.735Z,30.80
2019-02-26T09:05:53.932Z,34.17
2019-02-26T09:08:22.671Z,31.17
2019-02-26T09:10:51.391Z,34.27
2019-02-26T09:13:19.948Z,32.77
2019-02-26T09:15:48.669Z,33.40
2019-02-26T09:18:20.277Z,38.33
2019-02-26T09:20:47.753Z,30.77
2019-02-26T09:23:18.811Z,26.07
2019-02-26T09:25:51.464Z,28.67
2019-02-26T09:28:16.846Z,23.33
2019-02-26T09:30:45.537Z,30.93
2019-02-26T09:33:14.257Z,28.83
2019-02-26T09:35:42.833Z,25.73
2019-02-26T09:38:12.372Z,27.10
2019-02-26T09:40:41.942Z,32.80
2019-02-26T09:43:12.322Z,26.03
2019-02-26T09:46:36.345Z,26.97
2019-02-26T09:49:04.901Z,34.80
2019-02-26T09:54:23.837Z,24.23
2019-02-26T09:56:52.557Z,29.93
2019-02-26T09:59:21.211Z,25.67
2019-02-26T10:01:49.928Z,28.13
2019-02-26T10:04:19.768Z,23.93
2019-02-26T10:06:48.925Z,28.53
2019-02-26T10:09:18.753Z,24.50
2019-02-26T10:11:49.313Z,31.03
2019-02-26T10:14:18.496Z,23.30
2019-02-26T10:16:48.952Z,32.93
2019-02-26T10:19:19.444Z,25.90
2019-02-26T10:21:47.677Z,26.73
2019-02-26T10:24:18.402Z,25.17
2019-02-26T10:26:46.509Z,27.07
2019-02-26T10:29:15.131Z,19.40
2019-02-26T10:31:43.833Z,21.50
2019-02-26T10:34:15.432Z,22.10
2019-02-26T10:36:46.286Z,22.53
2019-02-26T10:39:15.083Z,20.80
2019-02-26T10:41:44.260Z,23.27
2019-02-26T10:44:14.716Z,27.53
2019-02-26T10:46:44.540Z,25.63
2019-02-26T10:49:13.161Z,18.20
2019-02-26T10:51:42.640Z,16.60
2019-02-26T10:54:13.348Z,20.83
2019-02-26T10:56:42.596Z,16.57
2019-02-26T10:59:13.147Z,16.27
2019-02-26T11:01:42.899Z,22.67
2019-02-26T11:04:11.582Z,19.10
2019-02-26T11:06:43.751Z,21.13
2019-02-26T11:09:14.249Z,18.43
2019-02-26T11:11:42.365Z,19.90
2019-02-26T11:14:13.492Z,16.77
2019-02-26T11:16:42.452Z,14.97
2019-02-26T11:19:12.340Z,17.67
2019-02-26T11:21:41.160Z,13.37
2019-02-26T11:24:11.281Z,17.27
2019-02-26T11:26:40.951Z,17.63
2019-02-26T11:29:10.335Z,14.93
2019-02-26T11:31:44.695Z,13.13
2019-02-26T11:34:13.436Z,13.47
2019-02-26T11:36:42.148Z,14.43
2019-02-26T11:39:12.097Z,15.63
2019-02-26T11:41:40.898Z,13.57
2019-02-26T11:44:12.492Z,15.87
2019-02-26T11:46:39.994Z,12.83
2019-02-26T11:49:09.391Z,14.40
2019-02-26T11:51:41.798Z,19.63
2019-02-26T11:54:10.703Z,17.73
2019-02-26T11:56:42.575Z,17.33
2019-02-26T11:59:12.598Z,19.97
2019-02-26T12:01:42.091Z,21.33
2019-02-26T12:04:13.646Z,14.70
2019-02-26T12:06:41.260Z,27.93
2019-02-26T12:09:11.434Z,18.03
2019-02-26T12:11:40.331Z,17.87
2019-02-26T12:14:10.902Z,14.13
2019-02-26T12:16:39.422Z,13.10
2019-02-26T12:19:08.719Z,12.57
2019-02-26T12:21:38.445Z,10.37
2019-02-26T12:24:09.212Z,9.80
2019-02-26T12:26:38.846Z,12.07
2019-02-26T12:29:07.510Z,15.17
2019-02-26T12:31:38.723Z,9.77
2019-02-26T12:34:08.378Z,12.00
2019-02-26T12:36:36.854Z,10.17
2019-02-26T12:39:07.618Z,10.80
2019-02-26T12:41:38.697Z,11.93
2019-02-26T12:44:10.976Z,11.73
2019-02-26T12:46:37.032Z,12.50
2019-02-26T12:49:08.476Z,12.27
2019-02-26T12:51:36.190Z,11.30
2019-02-26T12:54:06.330Z,12.77
2019-02-26T12:56:37.363Z,13.27
2019-02-26T12:59:07.083Z,11.83
2019-02-26T13:01:36.856Z,12.87
2019-02-26T13:04:09.381Z,14.77
2019-02-26T13:06:38.304Z,14.17
2019-02-26T13:09:06.960Z,12.13
2019-02-26T13:11:35.542Z,14.57
2019-02-26T13:14:04.295Z,11.90
2019-02-26T13:16:32.840Z,11.73
2019-02-26T13:19:04.509Z,14.13
2019-02-26T13:21:31.902Z,18.43
2019-02-26T13:26:35.974Z,10.00
2019-02-26T13:29:01.062Z,15.07
2019-02-26T13:31:34.053Z,11.57
2019-02-26T13:34:00.338Z,8.83
2019-02-26T13:36:29.702Z,6.93
2019-02-26T13:38:58.284Z,12.23
2019-02-26T13:41:29.962Z,11.60
2019-02-26T13:43:57.236Z,12.73
2019-02-26T13:46:26.700Z,8.73
2019-02-26T13:48:55.408Z,11.03
2019-02-26T13:51:24.169Z,13.77
2019-02-26T13:53:52.745Z,9.63
2019-02-26T13:56:24.205Z,6.60
2019-02-26T13:58:52.963Z,10.73
2019-02-26T14:01:21.699Z,14.23
2019-02-26T14:03:50.266Z,7.33
2019-02-26T14:06:47.242Z,4.70
2019-02-26T14:09:15.966Z,10.30
2019-02-26T14:11:44.755Z,5.57
2019-02-26T14:14:13.521Z,10.18
2019-02-26T14:16:42.508Z,8.20
2019-02-26T14:19:11.222Z,5.97
2019-02-26T14:21:39.835Z,5.23
2019-02-26T14:24:08.395Z,7.63
2019-02-26T14:26:37.206Z,4.27
2019-02-26T14:29:06.009Z,3.60
2019-02-26T14:31:37.787Z,7.03
2019-02-26T14:34:06.469Z,7.63
2019-02-26T14:36:35.190Z,16.10
2019-02-26T14:39:04.768Z,10.17
2019-02-26T14:41:33.617Z,6.57
2019-02-26T14:44:02.231Z,6.87
2019-02-26T14:46:30.887Z,8.33
2019-02-26T14:48:59.508Z,13.10
2019-02-26T14:51:28.239Z,8.43
2019-02-26T14:53:56.994Z,10.73
2019-02-26T14:56:25.787Z,15.73
2019-02-26T14:58:55.230Z,6.57
2019-02-26T15:01:23.980Z,5.60
2019-02-26T15:03:52.737Z,6.50
2019-02-26T15:06:21.314Z,6.70
2019-02-26T15:08:49.953Z,9.78
2019-02-26T15:11:18.686Z,7.53
2019-02-26T15:13:47.290Z,8.07
2019-02-26T15:16:16.172Z,10.40
2019-02-26T15:18:44.857Z,10.75
2019-02-26T15:21:13.434Z,11.53
2019-02-26T15:23:42.076Z,8.68
2019-02-26T15:26:10.802Z,12.05
2019-02-26T15:28:39.814Z,9.70
2019-02-26T15:31:08.492Z,12.03
2019-02-26T15:33:42.211Z,11.45
2019-02-26T15:36:11.645Z,13.83
2019-02-26T15:38:40.307Z,11.37
2019-02-26T15:41:09.015Z,12.87
2019-02-26T15:43:37.842Z,11.07
2019-02-26T15:46:06.564Z,11.08
2019-02-26T15:48:36.456Z,21.55
2019-02-26T15:51:13.896Z,10.10
2019-02-26T15:53:35.865Z,9.73
2019-02-26T15:56:04.514Z,14.20
2019-02-26T15:58:34.168Z,9.93
2019-02-26T16:01:04.904Z,11.67
2019-02-26T16:03:33.620Z,23.77
2019-02-26T16:06:02.338Z,13.87
2019-02-26T16:08:34.604Z,16.80
2019-02-26T16:11:03.124Z,18.93
2019-02-26T16:13:31.914Z,18.17
2019-02-26T16:16:00.824Z,18.07
2019-02-26T16:18:34.124Z,13.70
2019-02-26T16:21:02.971Z,16.33
2019-02-26T16:23:31.665Z,12.80
2019-02-26T16:26:00.737Z,18.00
2019-02-26T16:28:29.492Z,13.70
2019-02-26T16:30:58.075Z,15.43
2019-02-26T16:33:26.750Z,16.93
2019-02-26T16:35:57.442Z,15.20
2019-02-26T16:38:25.778Z,16.17
2019-02-26T16:40:54.531Z,13.27
2019-02-26T16:43:23.457Z,22.67
2019-02-26T16:45:52.178Z,17.17
2019-02-26T16:48:21.578Z,14.63
2019-02-26T16:50:50.966Z,19.87
2019-02-26T16:53:20.066Z,20.00
2019-02-26T16:55:49.578Z,20.57
2019-02-26T16:58:18.395Z,22.77
2019-02-26T17:00:48.850Z,19.93
2019-02-26T17:03:17.446Z,22.97
2019-02-26T17:05:47.665Z,24.87
2019-02-26T17:08:16.660Z,21.00
2019-02-26T17:10:45.363Z,23.07
2019-02-26T17:13:14.173Z,28.13
2019-02-26T17:15:43.263Z,38.17
2019-02-26T17:18:11.983Z,28.67
2019-02-26T17:20:40.779Z,28.13
2019-02-26T17:23:09.444Z,33.60
2019-02-26T17:25:38.182Z,29.57
2019-02-26T18:26:20.579Z,26.33
2019-02-26T18:28:49.352Z,23.30
2019-02-26T18:31:26.196Z,26.53
2019-02-26T18:33:48.438Z,23.67
2019-02-26T18:36:17.122Z,26.73
2019-02-26T18:38:48.328Z,27.63
2019-02-26T18:41:16.094Z,18.97
2019-02-26T18:43:47.513Z,24.27
2019-02-26T18:46:15.242Z,22.53
2019-02-26T18:48:48.533Z,25.43
2019-02-26T18:51:14.296Z,32.77
2019-02-26T18:53:44.620Z,29.03
2019-02-26T18:56:13.470Z,30.63
2019-02-26T18:58:42.129Z,30.63
2019-02-26T19:01:10.785Z,27.73
2019-02-26T19:03:41.559Z,33.00
2019-02-26T19:06:09.787Z,28.13
2019-02-26T19:08:39.387Z,26.33
2019-02-26T19:11:08.584Z,28.33
2019-02-26T19:13:37.330Z,28.97
2019-02-26T19:16:06.034Z,29.50
2019-02-26T19:18:35.675Z,27.87
2019-02-26T19:21:04.862Z,26.07
2019-02-26T19:23:33.576Z,37.50
2019-02-26T19:26:02.190Z,29.37
2019-02-26T19:28:30.931Z,26.50
2019-02-26T19:31:01.606Z,28.33
2019-02-26T19:33:29.880Z,26.90
2019-02-26T19:35:58.568Z,24.87
2019-02-26T19:38:27.656Z,26.97
2019-02-26T19:41:02.619Z,23.87
2019-02-26T19:43:31.305Z,25.23
2019-02-26T19:46:02.155Z,32.53
2019-02-26T19:48:33.879Z,25.43
2019-02-26T19:51:01.619Z,25.10
2019-02-26T19:53:34.466Z,27.63
2019-02-26T19:56:00.730Z,28.53
2019-02-26T19:58:29.462Z,23.40
2019-02-26T20:00:58.079Z,26.00
2019-02-26T20:03:26.686Z,33.43
2019-02-26T20:05:55.399Z,25.67
2019-02-26T20:08:24.162Z,28.10
2019-02-26T20:10:54.067Z,27.33
2019-02-26T20:13:22.810Z,26.40
2019-02-26T20:15:54.698Z,35.53
2019-02-26T20:18:37.847Z,30.83
2019-02-26T20:21:19.685Z,24.67
2019-02-26T20:23:48.645Z,31.37
2019-02-26T20:26:17.299Z,25.47
2019-02-26T20:28:45.991Z,25.07
2019-02-26T20:31:14.700Z,22.70
2019-02-26T20:33:43.420Z,25.90
2019-02-26T20:36:12.094Z,24.87
2019-02-26T20:38:40.772Z,25.70
2019-02-26T20:41:09.417Z,21.47
2019-02-26T20:43:37.997Z,29.97
2019-02-26T20:46:06.809Z,25.07
2019-02-26T20:48:36.840Z,24.57
2019-02-26T20:51:05.808Z,26.10
2019-02-26T20:53:36.580Z,28.67
2019-02-26T20:56:05.094Z,31.43
2019-02-26T20:58:33.872Z,27.03
2019-02-26T21:01:02.521Z,30.07
2019-02-26T21:03:31.198Z,29.30
2019-02-26T21:05:59.881Z,27.60
2019-02-26T21:08:30.885Z,28.90
2019-02-26T21:10:59.186Z,33.37
2019-02-26T21:13:28.032Z,35.90
2019-02-26T21:15:56.713Z,29.67
2019-02-26T21:18:30.307Z,27.03
2019-02-26T21:20:57.415Z,29.87
2019-02-26T21:23:27.814Z,31.30
2019-02-26T21:25:56.674Z,31.57
2019-02-26T21:28:25.402Z,28.80
2019-02-26T21:30:54.277Z,31.53
2019-02-26T21:33:22.902Z,29.87
2019-02-26T21:35:51.934Z,29.30
2019-02-26T21:41:56.407Z,35.70
2019-02-26T21:52:17.163Z,32.40
2019-02-26T21:54:45.837Z,33.80
2019-02-26T21:57:15.407Z,31.30
2019-02-26T21:59:49.983Z,31.43
2019-02-26T22:02:18.570Z,36.30
2019-02-26T22:04:44.903Z,31.10
2019-02-26T22:07:13.615Z,32.40
2019-02-26T22:09:42.371Z,28.20
2019-02-26T22:12:11.287Z,34.33
2019-02-26T22:14:39.939Z,29.60
2019-02-26T22:17:08.620Z,33.87
2019-02-26T22:19:37.730Z,32.97
2019-02-26T22:22:07.711Z,30.93
2019-02-26T22:24:37.750Z,35.70
2019-02-26T22:27:06.725Z,28.57
2019-02-26T22:29:36.361Z,26.57
2019-02-26T22:32:05.337Z,29.60
2019-02-26T22:34:34.183Z,34.83
2019-02-26T22:37:07.081Z,31.17
2019-02-26T22:39:33.371Z,25.80
2019-02-26T22:42:02.111Z,30.63
2019-02-26T22:44:30.865Z,25.23
2019-02-26T22:46:59.663Z,30.93
2019-02-26T22:49:28.282Z,26.67
2019-02-26T22:51:58.577Z,31.20
2019-02-26T22:54:27.071Z,23.93
2019-02-26T22:56:56.910Z,24.53
2019-02-26T22:59:26.159Z,24.93
2019-02-26T23:01:56.631Z,31.27
2019-02-26T23:04:25.306Z,29.20
2019-02-26T23:06:54.109Z,24.97
2019-02-26T23:09:24.572Z,25.60
2019-02-26T23:11:53.597Z,26.07
2019-02-26T23:14:22.599Z,26.67
2019-02-26T23:16:52.163Z,28.10
2019-02-26T23:19:21.833Z,25.70
2019-02-26T23:21:50.634Z,24.23
2019-02-26T23:24:19.751Z,27.00
2019-02-26T23:26:48.511Z,25.53
2019-02-26T23:29:17.209Z,23.40
2019-02-26T23:31:46.149Z,25.70
2019-02-26T23:34:14.992Z,24.50
2019-02-26T23:36:43.788Z,24.73
2019-02-26T23:39:14.000Z,27.73
2019-02-26T23:41:42.751Z,23.23
2019-02-26T23:44:11.819Z,25.37
2019-02-26T23:46:40.584Z,27.33
2019-02-26T23:49:11.732Z,23.60
2019-02-26T23:51:39.785Z,23.97
2019-02-26T23:54:08.594Z,29.87
2019-02-26T23:56:37.373Z,25.83
2019-02-26T23:59:06.021Z,29.60
